Time;durP1;ratioP1;P1;durP2;ratioP2;P2;SDS_P1;SDS_P2;PMS_P1;PMS_P2;Temp;Humidity;BMP_temperature;BMP_pressure;BME280_temperature;BME280_humidity;BME280_pressure;Samples;Min_cycle;Max_cycle;Signal;HPM_P1;HPM_P2
2022/11/15 00:01:09;;;;;;;11.48;7.47;;;;;;;9.19;95.21;99738.38;6103231;23;20104;-84
2022/11/15 00:03:55;;;;;;;12.55;7.75;;;;;;;9.22;95.56;99735.47;6127520;23;20031;-83
2022/11/15 00:06:40;;;;;;;13.05;7.43;;;;;;;9.23;95.63;99726.53;6149394;23;20024;-84
2022/11/15 00:09:25;;;;;;;13.57;7.80;;;;;;;9.22;95.73;99719.56;6106634;23;20040;-84
2022/11/15 00:12:10;;;;;;;15.52;8.55;;;;;;;9.25;95.12;99725.44;6105766;23;20021;-84
2022/11/15 00:14:56;;;;;;;18.42;10.18;;;;;;;9.24;95.18;99725.59;6058638;23;20036;-83
2022/11/15 00:17:41;;;;;;;17.88;8.60;;;;;;;9.22;95.61;99724.88;6148642;23;20013;-83
2022/11/15 00:20:26;;;;;;;15.52;9.27;;;;;;;9.19;95.72;99727.78;6101665;23;20044;-85
2022/11/15 00:23:11;;;;;;;17.17;9.38;;;;;;;9.19;95.41;99717.19;6120941;23;20021;-84
2022/11/15 00:25:57;;;;;;;13.88;9.43;;;;;;;9.22;95.71;99728.34;6057853;23;20028;-85
2022/11/15 00:28:43;;;;;;;12.52;8.10;;;;;;;9.21;95.75;99724.03;6152930;23;20032;-83
2022/11/15 00:31:28;;;;;;;12.18;7.50;;;;;;;9.24;95.61;99717.66;6147196;23;20140;-83
2022/11/15 00:34:13;;;;;;;13.93;8.35;;;;;;;9.24;95.34;99723.78;6149384;23;20463;-84
2022/11/15 00:36:59;;;;;;;13.48;9.02;;;;;;;9.23;95.41;99708.00;6127542;23;20048;-83
2022/11/15 00:39:44;;;;;;;13.02;8.77;;;;;;;9.21;95.64;99710.78;6148845;23;20437;-84
2022/11/15 00:42:30;;;;;;;14.80;7.95;;;;;;;9.21;95.86;99709.94;6101403;23;20096;-83
2022/11/15 00:45:15;;;;;;;13.63;8.82;;;;;;;9.22;95.52;99708.97;6122704;23;20028;-83
2022/11/15 00:48:01;;;;;;;16.92;7.90;;;;;;;9.23;95.84;99708.00;6140859;23;20017;-84
2022/11/15 00:50:46;;;;;;;12.13;7.05;;;;;;;9.30;95.29;99707.34;6106070;23;20013;-84
2022/11/15 00:53:31;;;;;;;10.93;7.00;;;;;;;9.29;95.43;99697.72;6149172;23;20018;-83
2022/11/15 00:56:17;;;;;;;11.60;6.90;;;;;;;9.29;95.19;99700.38;6149763;23;20032;-83
2022/11/15 00:59:02;;;;;;;11.68;7.28;;;;;;;9.28;95.01;99695.19;6058840;23;20101;-84
2022/11/15 01:01:48;;;;;;;14.60;7.53;;;;;;;9.24;95.45;99694.63;6151408;23;20040;-84
2022/11/15 01:04:33;;;;;;;12.65;7.03;;;;;;;9.25;95.50;99698.94;6081699;23;20045;-83
2022/11/15 01:07:18;;;;;;;11.98;6.47;;;;;;;9.26;95.43;99691.84;6124636;23;20013;-83
2022/11/15 01:10:04;;;;;;;10.85;6.05;;;;;;;9.24;95.06;99678.72;6103022;23;20449;-84
2022/11/15 01:12:50;;;;;;;12.70;6.88;;;;;;;9.20;95.16;99681.78;6102725;23;20092;-83
2022/11/15 01:15:39;;;;;;;12.88;7.50;;;;;;;9.18;95.18;99687.19;6082698;23;20021;-84
2022/11/15 01:18:25;;;;;;;12.48;7.80;;;;;;;9.21;95.21;99681.66;6129077;23;20087;-84
2022/11/15 01:21:12;;;;;;;12.20;7.15;;;;;;;9.19;94.94;99683.59;6125764;23;20344;-83
2022/11/15 01:23:57;;;;;;;9.38;6.00;;;;;;;9.16;94.70;99694.44;6123681;23;20432;-83
2022/11/15 01:26:43;;;;;;;11.43;5.88;;;;;;;9.12;94.42;99680.59;6149979;23;20020;-83
2022/11/15 01:29:28;;;;;;;10.38;6.18;;;;;;;9.09;94.15;99675.56;6126350;23;20017;-83
2022/11/15 01:32:13;;;;;;;10.60;6.35;;;;;;;9.08;94.04;99670.41;6126794;23;20017;-84
2022/11/15 01:34:58;;;;;;;9.50;6.38;;;;;;;9.06;93.93;99673.19;6125773;23;20099;-83
2022/11/15 01:37:43;;;;;;;10.45;6.28;;;;;;;9.03;93.86;99665.50;6106200;23;20017;-84
2022/11/15 01:40:29;;;;;;;9.95;7.18;;;;;;;8.98;94.01;99670.38;6060517;23;20029;-83
2022/11/15 01:43:31;;;;;;;9.35;6.80;;;;;;;8.95;93.77;99669.75;6129901;23;20021;-84
2022/11/15 01:46:30;;;;;;;12.88;6.78;;;;;;;8.85;93.83;99665.25;6102850;23;20020;-85
2022/11/15 01:49:20;;;;;;;14.77;6.80;;;;;;;8.93;93.68;99663.75;6123361;23;20076;-83
2022/11/15 01:52:09;;;;;;;12.38;6.57;;;;;;;8.91;93.72;99664.72;6040236;23;20029;-83
2022/11/15 01:55:16;;;;;;;13.25;7.05;;;;;;;8.84;93.44;99658.25;6130508;23;20021;-84
2022/11/15 01:58:03;;;;;;;10.88;6.93;;;;;;;8.93;93.74;99658.44;6061845;23;20092;-84
2022/11/15 02:00:49;;;;;;;12.18;7.32;;;;;;;8.93;94.20;99654.03;6124706;23;20029;-85
2022/11/15 02:03:42;;;;;;;13.25;6.95;;;;;;;8.95;93.74;99653.88;6128498;23;20044;-83
2022/11/15 02:06:27;;;;;;;13.13;7.07;;;;;;;8.96;94.15;99652.91;6107336;23;20029;-83
2022/11/15 02:09:12;;;;;;;15.32;7.05;;;;;;;8.96;94.28;99647.63;6106146;23;20075;-83
2022/11/15 02:12:00;;;;;;;14.15;7.05;;;;;;;8.98;94.52;99651.81;6144366;23;20028;-83
2022/11/15 02:14:49;;;;;;;14.30;8.07;;;;;;;8.93;95.00;99645.22;6089761;23;20088;-83
2022/11/15 02:17:59;;;;;;;10.90;7.38;;;;;;;8.90;94.83;99646.31;6129085;23;20101;-83
2022/11/15 02:21:18;;;;;;;10.40;6.38;;;;;;;8.87;94.33;99643.94;6090652;23;20202;-83
2022/11/15 02:24:29;;;;;;;12.73;7.35;;;;;;;8.81;94.25;99628.56;6072041;23;20100;-83
2022/11/15 02:27:36;;;;;;;11.93;6.32;;;;;;;8.85;94.43;99627.31;6109292;23;20023;-84
2022/11/15 02:31:00;;;;;;;13.13;6.72;;;;;;;8.82;94.39;99620.47;6038730;23;20013;-83
2022/11/15 02:34:19;;;;;;;9.60;6.28;;;;;;;8.85;94.32;99625.53;6048582;23;20025;-83
2022/11/15 02:37:28;;;;;;;10.75;6.13;;;;;;;8.82;94.76;99624.94;6035777;23;20508;-84
2022/11/15 02:40:33;;;;;;;9.38;5.82;;;;;;;8.87;95.02;99620.94;6103315;23;20032;-86
2022/11/15 02:49:53;;;;;;;10.80;5.63;;;;;;;8.93;94.61;99605.50;6083982;23;20013;-83
2022/11/15 02:52:39;;;;;;;9.45;4.97;;;;;;;8.91;94.62;99605.63;6104434;23;20100;-84
2022/11/15 02:55:29;;;;;;;10.20;5.07;;;;;;;8.88;94.28;99606.75;6172997;23;20091;-84
2022/11/15 02:58:49;;;;;;;10.10;5.70;;;;;;;8.77;94.50;99606.78;6129776;23;20048;-83
2022/11/15 03:02:03;;;;;;;9.90;6.13;;;;;;;8.79;93.79;99607.50;6047531;23;20013;-83
2022/11/15 03:05:04;;;;;;;9.35;5.40;;;;;;;8.73;93.99;99608.03;6055970;23;20399;-84
2022/11/15 03:07:52;;;;;;;7.95;5.10;;;;;;;8.72;92.89;99603.69;6061534;23;20036;-83
2022/11/15 03:10:46;;;;;;;7.95;4.75;;;;;;;8.67;93.06;99598.78;6128523;23;20140;-84
2022/11/15 03:13:32;;;;;;;7.75;5.00;;;;;;;8.67;93.21;99598.78;6126871;23;20017;-84
2022/11/15 03:16:24;;;;;;;7.15;5.00;;;;;;;8.68;92.72;99592.53;6125866;23;20025;-83
2022/11/15 03:19:22;;;;;;;5.97;4.60;;;;;;;8.64;92.79;99587.63;6127102;23;20017;-83
2022/11/15 03:22:19;;;;;;;9.70;4.70;;;;;;;8.68;93.42;99589.91;6090865;23;20345;-83
2022/11/15 03:25:07;;;;;;;5.28;4.30;;;;;;;8.75;93.54;99577.00;6102079;23;20021;-83
2022/11/15 03:27:53;;;;;;;9.35;4.45;;;;;;;8.76;94.07;99573.34;6057973;23;20143;-83
2022/11/15 03:30:44;;;;;;;10.02;5.43;;;;;;;8.78;93.69;99579.38;6111989;23;20021;-83
2022/11/15 03:33:30;;;;;;;8.93;5.47;;;;;;;8.80;93.88;99576.56;6154319;23;20139;-83
2022/11/15 03:36:16;;;;;;;8.02;5.18;;;;;;;8.77;93.53;99582.13;6147829;23;20024;-83
2022/11/15 03:39:05;;;;;;;10.13;5.85;;;;;;;8.71;93.66;99577.38;6123873;23;20337;-83
2022/11/15 03:41:57;;;;;;;7.00;5.53;;;;;;;8.67;94.03;99574.97;6103755;23;20021;-83
2022/11/15 03:44:51;;;;;;;9.27;5.70;;;;;;;8.73;93.57;99572.75;6101289;23;20021;-83
2022/11/15 03:47:39;;;;;;;11.70;5.57;;;;;;;8.71;93.54;99580.84;6144446;23;20025;-83
2022/11/15 03:50:25;;;;;;;9.00;5.80;;;;;;;8.69;94.19;99573.03;6126504;23;20053;-84
2022/11/15 03:53:13;;;;;;;11.95;5.78;;;;;;;8.70;94.07;99573.88;6120929;23;20360;-83
2022/11/15 03:55:58;;;;;;;11.38;6.47;;;;;;;8.74;94.04;99577.09;6126204;23;20027;-83
2022/11/15 03:58:43;;;;;;;8.98;5.57;;;;;;;8.77;93.92;99579.50;6079189;23;20581;-85
2022/11/15 04:01:28;;;;;;;11.38;5.93;;;;;;;8.79;93.94;99581.03;6080971;23;20017;-83
2022/11/15 04:04:14;;;;;;;9.07;6.20;;;;;;;8.79;93.84;99570.44;6143300;23;20032;-84
2022/11/15 04:06:59;;;;;;;10.25;5.20;;;;;;;8.79;93.73;99574.91;6127447;23;20100;-83
2022/11/15 04:10:03;;;;;;;9.15;4.85;;;;;;;8.83;93.49;99574.53;6125381;23;20031;-84
2022/11/15 04:12:48;;;;;;;10.32;5.22;;;;;;;8.83;93.97;99576.34;6104854;23;20025;-83
2022/11/15 04:15:34;;;;;;;6.72;4.57;;;;;;;8.86;93.88;99587.50;6132606;23;20096;-83
2022/11/15 04:18:19;;;;;;;7.85;5.40;;;;;;;8.86;93.86;99584.84;6150690;23;20040;-84
2022/11/15 04:24:14;;;;;;;8.60;5.38;;;;;;;8.84;93.61;99573.53;6085407;23;20268;-83
2022/11/15 04:27:00;;;;;;;9.40;5.28;;;;;;;8.86;93.43;99568.13;6104877;23;20017;-83
2022/11/15 04:29:46;;;;;;;9.32;5.28;;;;;;;8.84;93.36;99576.19;6172874;23;20317;-83
2022/11/15 04:32:31;;;;;;;11.70;6.65;;;;;;;8.86;93.55;99568.13;6149118;23;20349;-84
2022/11/15 04:35:16;;;;;;;8.52;5.60;;;;;;;8.83;93.89;99571.03;6103091;23;20040;-83
2022/11/15 04:38:04;;;;;;;8.05;5.90;;;;;;;8.82;94.11;99564.88;6126948;23;20021;-83
2022/11/15 04:40:49;;;;;;;8.45;5.88;;;;;;;8.83;94.00;99563.09;6104709;23;20029;-84
2022/11/15 04:43:34;;;;;;;13.68;6.13;;;;;;;8.84;93.65;99562.94;6127722;23;20013;-83
2022/11/15 04:46:21;;;;;;;11.23;7.32;;;;;;;8.87;93.61;99556.56;6123730;23;20754;-83
2022/11/15 04:49:06;;;;;;;9.77;5.65;;;;;;;8.84;93.55;99555.00;6128643;23;20448;-83
2022/11/15 04:51:51;;;;;;;9.25;6.28;;;;;;;8.85;93.73;99554.06;6149377;23;20024;-84
2022/11/15 04:54:36;;;;;;;10.20;6.57;;;;;;;8.89;93.35;99547.50;6152885;23;20017;-83
2022/11/15 04:57:21;;;;;;;9.65;5.75;;;;;;;8.91;93.19;99547.38;6079038;23;20044;-85
2022/11/15 05:00:12;;;;;;;10.63;5.40;;;;;;;8.87;93.43;99543.31;6127499;23;20467;-83
2022/11/15 05:06:02;;;;;;;8.40;5.20;;;;;;;8.90;94.23;99543.91;6063940;23;22179;-83
2022/11/15 05:08:47;;;;;;;13.48;5.47;;;;;;;8.89;94.30;99533.44;6102394;23;20028;-83
2022/11/15 05:11:32;;;;;;;8.73;5.22;;;;;;;8.91;94.36;99532.34;6128399;23;20471;-84
2022/11/15 05:14:18;;;;;;;9.05;5.40;;;;;;;8.90;94.66;99533.31;6151279;23;20041;-83
2022/11/15 05:17:03;;;;;;;9.70;5.20;;;;;;;8.88;94.54;99529.94;6125627;23;20054;-83
2022/11/15 05:19:48;;;;;;;7.13;4.60;;;;;;;8.90;94.46;99521.84;6129540;23;20028;-83
2022/11/15 05:22:34;;;;;;;8.05;4.70;;;;;;;8.87;94.62;99522.13;6126537;23;20028;-83
2022/11/15 05:25:19;;;;;;;8.48;4.85;;;;;;;8.87;94.34;99520.31;6147511;23;20091;-84
2022/11/15 05:28:05;;;;;;;5.80;4.30;;;;;;;8.88;94.38;99510.59;6127004;23;20025;-83
2022/11/15 05:30:50;;;;;;;8.90;4.30;;;;;;;8.89;93.75;99513.09;6128877;23;20096;-83
2022/11/15 05:33:37;;;;;;;6.72;3.95;;;;;;;8.89;93.69;99515.72;6125513;23;20020;-83
2022/11/15 05:36:36;;;;;;;7.40;4.30;;;;;;;8.78;93.94;99510.53;6106794;23;20148;-83
2022/11/15 05:39:22;;;;;;;8.07;4.43;;;;;;;8.85;94.23;99510.81;6104025;23;20040;-83
2022/11/15 05:42:12;;;;;;;6.10;4.30;;;;;;;8.78;94.00;99507.88;6097867;23;20037;-83
2022/11/15 05:44:58;;;;;;;7.13;4.55;;;;;;;8.82;94.31;99506.63;6097082;23;20022;-84
2022/11/15 05:47:44;;;;;;;12.18;4.45;;;;;;;8.82;94.10;99504.00;6123124;23;20013;-83
2022/11/15 05:50:29;;;;;;;7.68;4.50;;;;;;;8.84;93.76;99510.00;6096346;23;20040;-84
2022/11/15 05:53:16;;;;;;;5.35;3.40;;;;;;;8.83;93.51;99516.28;6101482;23;20021;-83
2022/11/15 05:56:02;;;;;;;5.97;4.15;;;;;;;8.80;93.55;99513.03;6101076;23;20017;-84
2022/11/15 05:58:47;;;;;;;5.18;3.92;;;;;;;8.75;93.63;99508.16;6127729;23;20025;-83
2022/11/15 06:01:33;;;;;;;5.43;3.33;;;;;;;8.74;93.36;99506.47;6125393;23;20116;-84
2022/11/15 06:04:18;;;;;;;6.28;3.63;;;;;;;8.71;92.83;99514.69;6146670;23;20013;-82
2022/11/15 06:07:03;;;;;;;5.45;3.70;;;;;;;8.63;92.89;99510.03;6104442;23;20147;-82
2022/11/15 06:09:48;;;;;;;6.47;3.97;;;;;;;8.63;92.83;99517.97;6163927;23;20090;-83
2022/11/15 06:12:33;;;;;;;7.13;4.15;;;;;;;8.58;92.99;99520.19;6104133;23;20021;-83
2022/11/15 06:15:19;;;;;;;5.85;4.28;;;;;;;8.62;93.05;99520.75;6104069;23;20021;-82
2022/11/15 06:18:04;;;;;;;6.18;3.92;;;;;;;8.62;93.35;99521.56;6103768;23;20021;-82
2022/11/15 06:20:49;;;;;;;8.25;4.85;;;;;;;8.68;92.88;99509.66;6105596;23;20048;-81
2022/11/15 06:23:35;;;;;;;11.20;6.43;;;;;;;8.63;93.17;99510.03;6101543;23;20091;-82
2022/11/15 06:26:20;;;;;;;10.88;6.75;;;;;;;8.61;93.04;99509.31;6151675;23;20025;-82
2022/11/15 06:29:05;;;;;;;10.00;5.97;;;;;;;8.58;93.38;99508.75;6150851;23;20020;-83
2022/11/15 06:31:50;;;;;;;9.48;6.18;;;;;;;8.58;93.53;99508.75;6104662;23;20444;-82
2022/11/15 06:34:36;;;;;;;8.35;5.45;;;;;;;8.55;93.24;99509.00;6107331;23;20028;-82
2022/11/15 06:37:21;;;;;;;8.05;5.72;;;;;;;8.57;93.28;99517.66;6149895;23;20376;-82
2022/11/15 06:40:08;;;;;;;7.70;5.00;;;;;;;8.56;93.06;99513.34;6149050;23;20488;-82
2022/11/15 06:43:00;;;;;;;6.68;5.00;;;;;;;8.51;92.51;99508.44;6130210;23;20028;-83
2022/11/15 06:45:45;;;;;;;13.00;5.03;;;;;;;8.56;92.62;99511.53;6106088;23;20028;-81
2022/11/15 06:48:32;;;;;;;12.60;4.65;;;;;;;8.57;93.00;99515.00;6152236;23;20095;-82
2022/11/15 06:51:17;;;;;;;8.23;4.30;;;;;;;8.53;92.89;99524.19;6172943;23;20021;-83
2022/11/15 06:54:03;;;;;;;8.43;4.75;;;;;;;8.52;93.12;99527.78;6126000;23;20024;-82
2022/11/15 06:56:48;;;;;;;10.00;4.80;;;;;;;8.47;92.99;99544.91;6126478;23;20068;-83
2022/11/15 06:59:33;;;;;;;10.40;4.70;;;;;;;8.46;92.77;99543.22;6108137;23;20433;-82
2022/11/15 07:02:25;;;;;;;6.35;4.28;;;;;;;8.48;92.44;99541.28;6083400;23;20456;-83
2022/11/15 07:05:11;;;;;;;7.30;4.70;;;;;;;8.48;92.35;99543.94;6104277;23;20088;-82
2022/11/15 07:07:57;;;;;;;6.60;4.47;;;;;;;8.50;92.51;99535.88;6170547;23;20095;-84
2022/11/15 07:10:43;;;;;;;7.43;4.18;;;;;;;8.51;92.34;99534.91;6104861;23;20028;-83
2022/11/15 07:13:32;;;;;;;13.82;5.07;;;;;;;8.52;92.58;99536.56;6126344;23;20619;-81
2022/11/15 07:16:19;;;;;;;10.10;5.80;;;;;;;8.51;92.41;99537.53;6127939;23;20519;-82
2022/11/15 07:19:04;;;;;;;9.48;6.75;;;;;;;8.50;92.41;99535.88;6109077;23;20024;-83
2022/11/15 07:21:49;;;;;;;11.60;6.90;;;;;;;8.45;92.69;99536.25;6107378;23;20016;-83
2022/11/15 07:24:35;;;;;;;13.05;6.38;;;;;;;8.50;92.68;99540.31;6084917;23;20021;-83
2022/11/15 07:27:20;;;;;;;15.43;6.50;;;;;;;8.51;92.73;99542.84;6096193;23;20545;-82
2022/11/15 07:30:06;;;;;;;9.40;6.07;;;;;;;8.56;92.87;99539.81;6121995;23;20021;-83
2022/11/15 07:32:59;;;;;;;9.82;6.10;;;;;;;8.57;92.60;99541.47;6145853;23;20036;-83
2022/11/15 07:35:48;;;;;;;6.93;5.07;;;;;;;8.60;93.06;99543.84;6130455;23;20031;-83
2022/11/15 07:38:34;;;;;;;9.77;5.30;;;;;;;8.66;93.12;99538.88;6150788;23;20029;-83
2022/11/15 07:41:26;;;;;;;9.32;6.00;;;;;;;8.67;93.08;99540.56;6150471;23;20112;-81
2022/11/15 07:44:11;;;;;;;7.40;5.40;;;;;;;8.70;93.34;99542.09;6150909;23;20045;-82
2022/11/15 07:46:57;;;;;;;10.23;5.60;;;;;;;8.72;92.94;99544.63;6149977;23;20067;-81
2022/11/15 07:49:43;;;;;;;10.15;6.20;;;;;;;8.78;92.54;99530.88;6121411;23;20445;-82
2022/11/15 07:52:28;;;;;;;11.18;5.78;;;;;;;8.79;92.49;99535.19;6146826;23;20724;-82
2022/11/15 07:55:13;;;;;;;8.73;5.40;;;;;;;8.80;92.64;99545.66;6124997;23;20510;-82
2022/11/15 07:58:03;;;;;;;7.95;5.25;;;;;;;8.80;92.77;99548.31;6061141;23;20032;-82
2022/11/15 08:00:48;;;;;;;12.75;5.75;;;;;;;8.87;92.61;99549.44;6086181;23;20021;-83
2022/11/15 08:03:34;;;;;;;12.98;5.53;;;;;;;8.92;92.39;99549.06;6149918;23;20021;-82
2022/11/15 08:06:20;;;;;;;9.27;5.28;;;;;;;8.95;92.05;99550.59;6102670;23;20028;-82
2022/11/15 08:09:05;;;;;;;15.27;5.88;;;;;;;8.98;91.83;99537.94;6124341;23;20104;-82
2022/11/15 08:11:51;;;;;;;10.75;5.60;;;;;;;9.03;91.71;99535.75;6128982;23;20032;-82
2022/11/15 08:14:36;;;;;;;11.90;6.07;;;;;;;9.06;91.78;99542.56;6150452;23;20111;-82
2022/11/15 08:17:25;;;;;;;7.88;5.03;;;;;;;9.09;91.47;99534.34;6104553;23;20033;-83
2022/11/15 08:20:10;;;;;;;11.43;6.53;;;;;;;9.11;91.42;99535.91;6105940;23;20021;-82
2022/11/15 08:22:57;;;;;;;9.40;5.93;;;;;;;9.13;91.29;99523.38;6126329;23;20087;-82
2022/11/15 08:25:42;;;;;;;12.80;5.28;;;;;;;9.12;91.39;99526.13;6105914;23;20060;-83
2022/11/15 08:28:28;;;;;;;8.40;4.70;;;;;;;9.12;91.03;99519.03;6172677;23;20471;-84
2022/11/15 08:31:16;;;;;;;11.10;5.63;;;;;;;9.14;90.94;99524.19;6129228;23;20025;-82
2022/11/15 08:34:02;;;;;;;10.88;5.32;;;;;;;9.13;91.18;99518.06;6102863;23;20025;-83
2022/11/15 08:36:47;;;;;;;10.15;5.15;;;;;;;9.15;91.45;99522.38;6151932;23;20099;-83
2022/11/15 08:39:33;;;;;;;11.13;4.88;;;;;;;9.13;91.82;99512.78;6126101;23;20102;-83
2022/11/15 08:42:18;;;;;;;16.15;6.25;;;;;;;9.17;91.58;99502.72;6104396;23;20017;-83
2022/11/15 08:45:04;;;;;;;9.55;4.97;;;;;;;9.19;91.52;99503.44;6148506;23;20043;-84
2022/11/15 08:47:50;;;;;;;13.45;5.57;;;;;;;9.22;91.51;99505.81;6082677;23;20023;-83
2022/11/15 08:50:38;;;;;;;12.88;7.63;;;;;;;9.24;91.68;99506.53;6085610;23;20025;-82
2022/11/15 08:53:24;;;;;;;12.77;6.70;;;;;;;9.25;91.50;99502.06;6124754;23;20040;-82
2022/11/15 08:56:14;;;;;;;12.07;7.45;;;;;;;9.26;91.43;99495.78;6128315;23;20449;-83
2022/11/15 08:59:00;;;;;;;11.85;6.97;;;;;;;9.28;91.71;99492.00;6105750;23;20029;-82
2022/11/15 09:01:45;;;;;;;14.90;8.07;;;;;;;9.30;91.50;99494.53;6123767;23;20500;-84
2022/11/15 09:04:31;;;;;;;12.68;7.55;;;;;;;9.31;91.67;99485.59;6128023;23;20322;-83
2022/11/15 09:07:16;;;;;;;13.23;7.38;;;;;;;9.34;91.63;99494.13;6127050;23;20121;-83
2022/11/15 09:10:02;;;;;;;11.57;7.10;;;;;;;9.39;91.67;99503.47;6108286;23;20036;-84
2022/11/15 09:12:48;;;;;;;12.88;6.70;;;;;;;9.43;91.50;99496.94;6081267;23;20091;-83
2022/11/15 09:15:34;;;;;;;12.25;7.10;;;;;;;9.45;91.42;99477.28;6096481;23;20475;-84
2022/11/15 09:18:22;;;;;;;13.57;6.95;;;;;;;9.48;91.28;99478.81;6058957;23;20025;-83
2022/11/15 09:21:07;;;;;;;13.68;6.28;;;;;;;9.51;90.79;99487.31;6115310;23;20373;-83
2022/11/15 09:23:53;;;;;;;10.30;6.28;;;;;;;9.50;90.77;99480.34;6129344;23;20021;-82
2022/11/15 09:26:38;;;;;;;10.40;6.20;;;;;;;9.53;90.72;99480.06;6121418;23;20445;-82
2022/11/15 09:29:23;;;;;;;11.70;6.53;;;;;;;9.55;90.83;99472.00;6127515;23;20028;-83
2022/11/15 09:32:09;;;;;;;9.48;5.40;;;;;;;9.56;90.88;99476.31;6101778;23;20017;-82
2022/11/15 09:34:55;;;;;;;9.88;5.40;;;;;;;9.58;90.78;99471.72;6128697;23;20045;-83
2022/11/15 09:37:40;;;;;;;10.10;5.15;;;;;;;9.61;90.62;99473.25;6065939;23;20028;-84
2022/11/15 09:40:26;;;;;;;10.07;5.38;;;;;;;9.63;90.64;99480.09;6102856;23;20095;-84
2022/11/15 09:43:34;;;;;;;10.15;5.30;;;;;;;9.67;90.86;99470.06;6127658;23;20029;-84
2022/11/15 09:46:32;;;;;;;15.38;6.45;;;;;;;9.63;90.77;99466.00;6062387;22;20028;-84
2022/11/15 09:49:34;;;;;;;7.60;5.20;;;;;;;9.71;90.86;99471.44;6084795;23;20017;-83
2022/11/15 09:52:20;;;;;;;9.50;5.55;;;;;;;9.74;90.81;99472.00;6147836;23;20040;-82
2022/11/15 09:54:49;;;;;;;8.57;5.10;;;;;;;9.77;90.74;99471.72;6122366;23;20021;-83
2022/11/15 09:57:31;;;;;;;9.05;4.72;;;;;;;9.79;90.67;99460.97;6100753;23;20045;-83
2022/11/15 10:00:10;;;;;;;10.68;5.47;;;;;;;9.81;90.54;99466.97;6100178;23;20021;-83
2022/11/15 10:03:12;;;;;;;10.48;5.13;;;;;;;9.82;90.69;99449.25;6063880;23;20036;-83
2022/11/15 10:05:45;;;;;;;12.27;4.57;;;;;;;9.91;90.95;99451.88;6143794;23;20021;-82
2022/11/15 10:08:30;;;;;;;8.82;5.32;;;;;;;9.91;90.65;99451.88;6094653;23;20080;-83
2022/11/15 10:11:11;;;;;;;9.10;5.25;;;;;;;9.97;90.97;99447.81;6168675;23;20021;-83
2022/11/15 10:14:05;;;;;;;8.57;5.05;;;;;;;10.02;90.69;99447.41;6099994;23;20100;-83
2022/11/15 10:16:50;;;;;;;7.65;4.60;;;;;;;10.06;90.50;99440.84;6119371;23;20021;-82
2022/11/15 10:19:17;;;;;;;9.10;5.03;;;;;;;10.08;90.45;99441.56;6125742;23;20439;-83
2022/11/15 10:22:16;;;;;;;8.27;5.60;;;;;;;10.02;90.11;99428.84;6174349;23;20024;-83
2022/11/15 10:24:45;;;;;;;10.60;5.68;;;;;;;10.11;90.39;99420.88;5990709;23;20026;-84
2022/11/15 10:27:15;;;;;;;8.90;5.35;;;;;;;10.14;90.23;99425.06;6066003;23;20025;-83
2022/11/15 10:29:49;;;;;;;9.95;5.00;;;;;;;10.15;90.07;99422.28;6066099;23;20022;-83
2022/11/15 10:32:20;;;;;;;7.80;4.75;;;;;;;10.15;89.84;99418.75;6064045;23;20029;-83
2022/11/15 10:34:49;;;;;;;9.18;4.35;;;;;;;10.19;89.89;99406.88;6065702;23;20026;-82
2022/11/15 10:37:30;;;;;;;8.85;5.13;;;;;;;10.15;89.28;99403.69;6066119;23;20339;-83
2022/11/15 10:40:18;;;;;;;6.50;4.22;;;;;;;10.17;89.04;99392.94;6088779;23;20118;-83
2022/11/15 10:42:45;;;;;;;8.15;4.80;;;;;;;10.23;89.68;99392.38;6064564;23;20061;-83
2022/11/15 10:45:24;;;;;;;12.38;5.53;;;;;;;10.21;89.92;99394.31;6113546;23;20077;-83
2022/11/15 10:47:51;;;;;;;8.07;4.80;;;;;;;10.27;90.12;99390.25;6041050;23;20061;-83
2022/11/15 10:50:30;;;;;;;8.55;4.57;;;;;;;10.24;89.79;99378.09;6065710;23;20037;-84
2022/11/15 10:52:57;;;;;;;11.75;5.65;;;;;;;10.31;90.14;99383.72;6065406;23;20081;-82
2022/11/15 10:55:30;;;;;;;9.40;4.22;;;;;;;10.30;89.46;99379.38;6114651;23;20025;-83
2022/11/15 10:58:28;;;;;;;6.27;4.10;;;;;;;10.25;88.91;99373.63;6148443;23;20017;-83
2022/11/15 11:00:55;;;;;;;6.03;3.85;;;;;;;10.33;89.05;99376.41;6131655;23;20017;-83
2022/11/15 11:03:37;;;;;;;4.43;3.25;;;;;;;10.29;88.64;99369.75;6174508;23;20033;-83
2022/11/15 11:06:08;;;;;;;5.32;3.50;;;;;;;10.34;88.83;99370.97;6149413;23;20396;-83
2022/11/15 11:08:36;;;;;;;7.90;4.22;;;;;;;10.37;88.62;99359.22;6149805;23;20326;-83
2022/11/15 11:11:03;;;;;;;6.15;3.40;;;;;;;10.38;88.69;99359.09;6124842;23;20025;-83
2022/11/15 11:13:39;;;;;;;6.18;3.55;;;;;;;10.34;88.17;99359.53;6172641;23;20444;-83
2022/11/15 11:16:09;;;;;;;6.85;3.63;;;;;;;10.40;88.48;99361.59;6174753;23;20017;-84
2022/11/15 11:18:43;;;;;;;7.97;4.40;;;;;;;10.40;88.32;99356.28;6148619;23;20353;-83
2022/11/15 11:21:14;;;;;;;6.78;4.00;;;;;;;10.41;88.80;99352.66;6104996;23;20029;-82
2022/11/15 11:23:51;;;;;;;11.00;4.90;;;;;;;10.43;88.75;99354.19;6117555;23;20044;-84
2022/11/15 11:26:33;;;;;;;8.02;4.70;;;;;;;10.45;89.04;99351.38;6094592;23;20025;-83
2022/11/15 11:29:18;;;;;;;8.48;4.72;;;;;;;10.42;89.23;99351.66;6118251;23;20033;-83
2022/11/15 11:31:48;;;;;;;10.00;4.72;;;;;;;10.48;89.44;99348.44;6141200;23;20355;-82
2022/11/15 11:34:24;;;;;;;9.38;4.72;;;;;;;10.50;89.53;99341.16;6116439;23;20029;-81
2022/11/15 11:37:24;;;;;;;6.07;4.55;;;;;;;10.49;89.47;99343.97;6089648;23;20445;-87
2022/11/15 11:39:58;;;;;;;9.48;5.40;;;;;;;10.56;89.60;99342.41;6050757;23;20341;-86
2022/11/15 11:42:57;;;;;;;10.25;6.32;;;;;;;10.50;89.24;99335.00;6093117;23;20389;-86
2022/11/15 11:45:49;;;;;;;11.25;5.72;;;;;;;10.53;89.09;99327.59;6070663;23;20437;-92
2022/11/15 11:48:30;;;;;;;13.32;6.55;;;;;;;10.63;89.21;99327.53;6070553;23;20033;-93
2022/11/15 11:51:04;;;;;;;8.70;6.10;;;;;;;10.64;89.34;99315.94;6071896;23;20104;-93
2022/11/15 11:53:39;;;;;;;14.00;6.80;;;;;;;10.65;89.43;99315.78;6138966;23;20428;-93
2022/11/15 11:56:26;;;;;;;8.07;5.78;;;;;;;10.62;89.12;99313.41;6102012;23;20029;-92
2022/11/15 11:58:55;;;;;;;7.80;4.93;;;;;;;10.71;89.50;99303.75;6150678;23;20043;-95
2022/11/15 12:01:25;;;;;;;10.10;5.30;;;;;;;10.73;89.22;99299.09;6126862;23;20036;-93
2022/11/15 12:04:04;;;;;;;7.72;4.90;;;;;;;10.73;88.84;99284.97;6095620;23;20017;-93
2022/11/15 12:06:52;;;;;;;6.68;4.75;;;;;;;10.73;88.86;99285.81;6083719;23;20416;-94
2022/11/15 12:09:37;;;;;;;6.25;4.68;;;;;;;10.79;88.73;99287.06;6130668;23;20075;-95
2022/11/15 12:12:38;;;;;;;10.85;5.47;;;;;;;10.81;88.65;99280.59;6105312;23;20019;-93
2022/11/15 12:15:46;;;;;;;8.88;5.18;;;;;;;10.80;88.84;99278.91;6012910;23;20142;-94
2022/11/15 12:18:15;;;;;;;11.65;5.40;;;;;;;10.85;88.83;99279.31;6070014;23;20025;-92
2022/11/15 12:20:52;;;;;;;6.95;4.47;;;;;;;10.82;88.87;99266.34;6123856;23;20021;-95
2022/11/15 12:23:31;;;;;;;7.32;4.97;;;;;;;10.83;88.48;99270.66;6012015;23;20892;-93
2022/11/15 12:26:05;;;;;;;7.78;4.72;;;;;;;10.87;88.75;99271.19;6061478;23;20434;-94
2022/11/15 12:28:42;;;;;;;8.90;4.15;;;;;;;10.91;89.07;99272.53;6091224;23;20024;-93
2022/11/15 12:31:35;;;;;;;6.75;4.53;;;;;;;10.88;89.01;99259.56;6054223;23;20030;-93
2022/11/15 12:34:23;;;;;;;8.07;4.43;;;;;;;10.93;89.06;99251.97;6042881;23;20100;-94
2022/11/15 12:36:51;;;;;;;8.00;5.07;;;;;;;10.94;89.25;99251.00;6066689;23;20045;-93
2022/11/15 12:39:18;;;;;;;10.57;5.15;;;;;;;10.96;89.07;99248.19;5994736;23;20026;-92
2022/11/15 12:41:54;;;;;;;11.02;4.55;;;;;;;10.93;88.78;99241.34;6067385;23;20018;-93
2022/11/15 12:44:30;;;;;;;7.72;5.18;;;;;;;10.95;88.83;99242.03;6067365;23;20129;-88
2022/11/15 12:46:57;;;;;;;9.13;5.35;;;;;;;11.01;89.09;99248.56;6038448;23;20026;-89
2022/11/15 12:49:23;;;;;;;15.02;5.95;;;;;;;11.04;89.17;99242.94;6060726;23;20026;-91
2022/11/15 12:51:51;;;;;;;9.40;4.72;;;;;;;11.05;89.17;99239.31;6042179;23;20050;-88
2022/11/15 12:54:21;;;;;;;12.82;4.80;;;;;;;11.05;89.08;99231.34;6112751;23;20021;-95
2022/11/15 12:57:03;;;;;;;7.68;5.20;;;;;;;11.00;88.78;99229.13;6123867;23;20093;-92
2022/11/15 12:59:53;;;;;;;9.55;5.25;;;;;;;10.99;88.98;99223.97;6150314;23;20041;-91
2022/11/15 13:02:45;;;;;;;9.77;5.28;;;;;;;11.06;88.76;99222.38;6075833;23;20089;-93
2022/11/15 13:05:15;;;;;;;6.28;4.03;;;;;;;11.07;88.97;99230.19;5967298;23;20490;-93
2022/11/15 13:07:42;;;;;;;9.63;5.30;;;;;;;11.08;89.12;99217.75;6021413;23;20025;-93
2022/11/15 13:10:27;;;;;;;6.28;4.00;;;;;;;11.02;89.38;99219.19;5985929;23;20122;-94
2022/11/15 13:13:00;;;;;;;7.63;4.60;;;;;;;11.11;89.54;99220.09;6019242;23;20041;-94
2022/11/15 13:15:36;;;;;;;11.25;4.40;;;;;;;11.08;89.56;99209.78;5961726;23;20022;-94